sensor_id;sensor_type;location;lat;lon;timestamp;temperature;humidity
1728;DHT22;861;48.808;9.006;2022-07-29T00:01:43;22.60;99.90
1728;DHT22;861;48.808;9.006;2022-07-29T00:04:11;22.60;99.90
1728;DHT22;861;48.808;9.006;2022-07-29T00:06:38;22.70;99.90
1728;DHT22;861;48.808;9.006;2022-07-29T00:09:05;22.80;99.90
1728;DHT22;861;48.808;9.006;2022-07-29T00:11:31;22.60;99.90
1728;DHT22;861;48.808;9.006;2022-07-29T00:13:58;22.60;99.90
1728;DHT22;861;48.808;9.006;2022-07-29T00:16:24;22.50;99.90
1728;DHT22;861;48.808;9.006;2022-07-29T00:18:50;22.50;99.90
1728;DHT22;861;48.808;9.006;2022-07-29T00:21:16;22.50;99.90
1728;DHT22;861;48.808;9.006;2022-07-29T00:23:43;22.40;99.90
1728;DHT22;861;48.808;9.006;2022-07-29T00:26:09;22.30;99.90
1728;DHT22;861;48.808;9.006;2022-07-29T00:28:35;22.20;99.90
1728;DHT22;861;48.808;9.006;2022-07-29T00:31:02;22.20;99.90
1728;DHT22;861;48.808;9.006;2022-07-29T00:33:29;22.10;99.90
1728;DHT22;861;48.808;9.006;2022-07-29T00:35:55;22.10;99.90
1728;DHT22;861;48.808;9.006;2022-07-29T00:38:21;22.20;99.90
1728;DHT22;861;48.808;9.006;2022-07-29T00:40:48;22.10;99.90
1728;DHT22;861;48.808;9.006;2022-07-29T00:43:15;22.10;99.90
1728;DHT22;861;48.808;9.006;2022-07-29T00:45:42;22.00;99.90
1728;DHT22;861;48.808;9.006;2022-07-29T00:48:10;21.90;99.90
1728;DHT22;861;48.808;9.006;2022-07-29T00:50:37;22.00;99.90
1728;DHT22;861;48.808;9.006;2022-07-29T00:53:07;21.90;99.90
1728;DHT22;861;48.808;9.006;2022-07-29T00:55:35;21.80;99.90
1728;DHT22;861;48.808;9.006;2022-07-29T00:58:02;21.70;99.90
1728;DHT22;861;48.808;9.006;2022-07-29T01:00:31;21.70;99.90
1728;DHT22;861;48.808;9.006;2022-07-29T01:02:57;21.60;99.90
1728;DHT22;861;48.808;9.006;2022-07-29T01:05:28;21.60;99.90
1728;DHT22;861;48.808;9.006;2022-07-29T01:07:57;21.70;99.90
1728;DHT22;861;48.808;9.006;2022-07-29T01:10:27;21.60;99.90
1728;DHT22;861;48.808;9.006;2022-07-29T01:12:59;21.50;99.90
1728;DHT22;861;48.808;9.006;2022-07-29T01:15:27;21.50;99.90
1728;DHT22;861;48.808;9.006;2022-07-29T01:18:11;21.40;99.90
1728;DHT22;861;48.808;9.006;2022-07-29T01:24:43;21.40;99.90
1728;DHT22;861;48.808;9.006;2022-07-29T01:30:32;21.20;99.90
1728;DHT22;861;48.808;9.006;2022-07-29T01:33:10;21.30;99.90
1728;DHT22;861;48.808;9.006;2022-07-29T01:36:13;21.30;99.90
1728;DHT22;861;48.808;9.006;2022-07-29T01:38:57;21.40;99.90
1728;DHT22;861;48.808;9.006;2022-07-29T01:41:41;21.30;99.90
1728;DHT22;861;48.808;9.006;2022-07-29T01:44:45;21.30;99.90
1728;DHT22;861;48.808;9.006;2022-07-29T01:47:33;21.30;99.90
1728;DHT22;861;48.808;9.006;2022-07-29T01:50:11;21.20;99.90
1728;DHT22;861;48.808;9.006;2022-07-29T01:53:08;21.20;99.90
1728;DHT22;861;48.808;9.006;2022-07-29T01:55:46;21.20;99.90
1728;DHT22;861;48.808;9.006;2022-07-29T01:58:19;21.10;99.90
1728;DHT22;861;48.808;9.006;2022-07-29T02:00:51;21.10;99.90
1728;DHT22;861;48.808;9.006;2022-07-29T02:03:23;21.20;99.90
1728;DHT22;861;48.808;9.006;2022-07-29T02:05:53;21.30;99.90
1728;DHT22;861;48.808;9.006;2022-07-29T02:08:26;21.30;99.90
1728;DHT22;861;48.808;9.006;2022-07-29T02:11:00;21.30;99.90
1728;DHT22;861;48.808;9.006;2022-07-29T02:13:34;21.30;99.90
1728;DHT22;861;48.808;9.006;2022-07-29T02:16:07;21.40;99.90
1728;DHT22;861;48.808;9.006;2022-07-29T02:18:41;21.20;99.90
1728;DHT22;861;48.808;9.006;2022-07-29T02:21:15;21.20;99.90
1728;DHT22;861;48.808;9.006;2022-07-29T02:23:52;21.10;99.90
1728;DHT22;861;48.808;9.006;2022-07-29T02:26:26;21.00;99.90
1728;DHT22;861;48.808;9.006;2022-07-29T02:28:59;21.00;99.90
1728;DHT22;861;48.808;9.006;2022-07-29T02:31:33;21.00;99.90
1728;DHT22;861;48.808;9.006;2022-07-29T02:34:08;21.00;99.90
1728;DHT22;861;48.808;9.006;2022-07-29T02:36:39;21.00;99.90
1728;DHT22;861;48.808;9.006;2022-07-29T02:39:12;21.00;99.90
1728;DHT22;861;48.808;9.006;2022-07-29T02:41:51;21.00;99.90
1728;DHT22;861;48.808;9.006;2022-07-29T02:44:26;20.90;99.90
1728;DHT22;861;48.808;9.006;2022-07-29T02:49:55;20.70;99.90
1728;DHT22;861;48.808;9.006;2022-07-29T02:52:44;20.80;99.90
1728;DHT22;861;48.808;9.006;2022-07-29T02:55:36;20.80;99.90
1728;DHT22;861;48.808;9.006;2022-07-29T02:58:17;21.00;99.90
1728;DHT22;861;48.808;9.006;2022-07-29T03:01:11;20.90;99.90
1728;DHT22;861;48.808;9.006;2022-07-29T03:03:46;20.90;99.90
1728;DHT22;861;48.808;9.006;2022-07-29T03:06:21;20.90;99.90
1728;DHT22;861;48.808;9.006;2022-07-29T03:08:55;20.90;99.90
1728;DHT22;861;48.808;9.006;2022-07-29T03:11:25;21.00;99.90
1728;DHT22;861;48.808;9.006;2022-07-29T03:13:54;21.00;99.90
1728;DHT22;861;48.808;9.006;2022-07-29T03:16:23;21.00;99.90
1728;DHT22;861;48.808;9.006;2022-07-29T03:18:51;21.00;99.90
1728;DHT22;861;48.808;9.006;2022-07-29T03:21:18;21.10;99.90
1728;DHT22;861;48.808;9.006;2022-07-29T03:23:45;21.10;99.90
1728;DHT22;861;48.808;9.006;2022-07-29T03:26:12;21.20;99.90
1728;DHT22;861;48.808;9.006;2022-07-29T03:28:39;21.10;99.90
1728;DHT22;861;48.808;9.006;2022-07-29T03:31:05;21.10;99.90
1728;DHT22;861;48.808;9.006;2022-07-29T03:33:31;21.10;99.90
1728;DHT22;861;48.808;9.006;2022-07-29T03:35:57;21.00;99.90
1728;DHT22;861;48.808;9.006;2022-07-29T03:38:29;21.00;99.90
1728;DHT22;861;48.808;9.006;2022-07-29T03:41:09;20.80;99.90
1728;DHT22;861;48.808;9.006;2022-07-29T03:43:42;20.70;99.90
1728;DHT22;861;48.808;9.006;2022-07-29T03:46:10;20.70;99.90
1728;DHT22;861;48.808;9.006;2022-07-29T03:48:47;20.70;99.90
1728;DHT22;861;48.808;9.006;2022-07-29T03:51:18;20.70;99.90
1728;DHT22;861;48.808;9.006;2022-07-29T03:53:45;20.70;99.90
1728;DHT22;861;48.808;9.006;2022-07-29T03:56:20;20.90;99.90
1728;DHT22;861;48.808;9.006;2022-07-29T03:58:52;20.80;99.90
1728;DHT22;861;48.808;9.006;2022-07-29T04:01:21;20.80;99.90
1728;DHT22;861;48.808;9.006;2022-07-29T04:03:49;20.70;99.90
1728;DHT22;861;48.808;9.006;2022-07-29T04:06:16;20.60;99.90
1728;DHT22;861;48.808;9.006;2022-07-29T04:08:42;20.60;99.90
1728;DHT22;861;48.808;9.006;2022-07-29T04:11:09;20.50;99.90
1728;DHT22;861;48.808;9.006;2022-07-29T04:13:35;20.50;99.90
1728;DHT22;861;48.808;9.006;2022-07-29T04:16:01;20.50;99.90
1728;DHT22;861;48.808;9.006;2022-07-29T04:18:28;20.50;99.90
1728;DHT22;861;48.808;9.006;2022-07-29T04:20:54;20.40;99.90
1728;DHT22;861;48.808;9.006;2022-07-29T04:23:20;20.20;99.90
1728;DHT22;861;48.808;9.006;2022-07-29T04:25:47;20.00;99.90
1728;DHT22;861;48.808;9.006;2022-07-29T04:28:13;19.70;99.90
1728;DHT22;861;48.808;9.006;2022-07-29T04:30:39;19.60;99.90
1728;DHT22;861;48.808;9.006;2022-07-29T04:33:07;19.60;99.90
1728;DHT22;861;48.808;9.006;2022-07-29T04:35:37;19.70;99.90
1728;DHT22;861;48.808;9.006;2022-07-29T04:38:06;19.80;99.90
1728;DHT22;861;48.808;9.006;2022-07-29T04:40:33;20.00;99.90
1728;DHT22;861;48.808;9.006;2022-07-29T04:43:00;20.10;99.90
1728;DHT22;861;48.808;9.006;2022-07-29T04:45:28;20.10;99.90
1728;DHT22;861;48.808;9.006;2022-07-29T04:47:55;20.20;99.90
1728;DHT22;861;48.808;9.006;2022-07-29T04:50:22;20.20;99.90
1728;DHT22;861;48.808;9.006;2022-07-29T04:52:49;20.20;99.90
1728;DHT22;861;48.808;9.006;2022-07-29T04:55:15;20.20;99.90
1728;DHT22;861;48.808;9.006;2022-07-29T04:57:41;20.20;99.90
1728;DHT22;861;48.808;9.006;2022-07-29T05:00:08;20.30;99.90
1728;DHT22;861;48.808;9.006;2022-07-29T05:02:35;20.30;99.90
1728;DHT22;861;48.808;9.006;2022-07-29T05:05:02;20.40;99.90
1728;DHT22;861;48.808;9.006;2022-07-29T05:07:28;20.50;99.90
1728;DHT22;861;48.808;9.006;2022-07-29T05:09:54;20.60;99.90
1728;DHT22;861;48.808;9.006;2022-07-29T05:12:24;20.60;99.90
1728;DHT22;861;48.808;9.006;2022-07-29T05:14:51;20.70;99.90
1728;DHT22;861;48.808;9.006;2022-07-29T05:17:17;20.80;99.90
1728;DHT22;861;48.808;9.006;2022-07-29T05:19:44;20.80;99.90
1728;DHT22;861;48.808;9.006;2022-07-29T05:22:10;20.80;99.90
1728;DHT22;861;48.808;9.006;2022-07-29T05:24:37;20.80;99.90
1728;DHT22;861;48.808;9.006;2022-07-29T05:27:03;20.90;99.90
1728;DHT22;861;48.808;9.006;2022-07-29T05:29:30;20.90;99.90
1728;DHT22;861;48.808;9.006;2022-07-29T05:31:56;20.90;99.90
1728;DHT22;861;48.808;9.006;2022-07-29T05:34:22;20.90;99.90
1728;DHT22;861;48.808;9.006;2022-07-29T05:36:49;21.00;99.90
1728;DHT22;861;48.808;9.006;2022-07-29T05:39:15;21.00;99.90
1728;DHT22;861;48.808;9.006;2022-07-29T05:41:42;21.10;99.90
1728;DHT22;861;48.808;9.006;2022-07-29T05:44:08;21.20;99.90
1728;DHT22;861;48.808;9.006;2022-07-29T05:46:35;21.20;99.90
1728;DHT22;861;48.808;9.006;2022-07-29T05:49:01;21.20;99.90
1728;DHT22;861;48.808;9.006;2022-07-29T05:51:28;21.10;99.90
1728;DHT22;861;48.808;9.006;2022-07-29T05:53:55;21.20;99.90
1728;DHT22;861;48.808;9.006;2022-07-29T05:56:21;21.30;99.90
1728;DHT22;861;48.808;9.006;2022-07-29T05:58:48;21.40;99.90
1728;DHT22;861;48.808;9.006;2022-07-29T06:01:14;21.60;99.90
1728;DHT22;861;48.808;9.006;2022-07-29T06:03:40;21.70;99.90
1728;DHT22;861;48.808;9.006;2022-07-29T06:06:07;21.80;99.90
1728;DHT22;861;48.808;9.006;2022-07-29T06:08:33;21.80;99.90
1728;DHT22;861;48.808;9.006;2022-07-29T06:11:01;21.90;99.90
1728;DHT22;861;48.808;9.006;2022-07-29T06:13:28;22.00;99.90
1728;DHT22;861;48.808;9.006;2022-07-29T06:15:54;22.10;99.90
1728;DHT22;861;48.808;9.006;2022-07-29T06:18:21;22.20;99.90
1728;DHT22;861;48.808;9.006;2022-07-29T06:20:53;22.30;99.90
1728;DHT22;861;48.808;9.006;2022-07-29T06:23:20;22.20;99.90
1728;DHT22;861;48.808;9.006;2022-07-29T06:25:47;22.30;99.90
1728;DHT22;861;48.808;9.006;2022-07-29T06:28:14;22.40;99.90
1728;DHT22;861;48.808;9.006;2022-07-29T06:30:40;22.40;99.90
1728;DHT22;861;48.808;9.006;2022-07-29T06:33:06;22.50;99.90
1728;DHT22;861;48.808;9.006;2022-07-29T06:35:36;22.50;99.90
1728;DHT22;861;48.808;9.006;2022-07-29T06:38:03;22.40;99.90
1728;DHT22;861;48.808;9.006;2022-07-29T06:40:29;22.40;99.90
1728;DHT22;861;48.808;9.006;2022-07-29T06:43:14;22.50;99.90
1728;DHT22;861;48.808;9.006;2022-07-29T06:45:41;22.50;99.90
1728;DHT22;861;48.808;9.006;2022-07-29T06:48:09;22.50;99.90
1728;DHT22;861;48.808;9.006;2022-07-29T06:50:35;22.60;99.90
1728;DHT22;861;48.808;9.006;2022-07-29T06:53:02;22.80;99.90
1728;DHT22;861;48.808;9.006;2022-07-29T06:55:29;22.90;99.90
1728;DHT22;861;48.808;9.006;2022-07-29T06:57:55;23.20;99.90
1728;DHT22;861;48.808;9.006;2022-07-29T07:00:21;23.40;99.90
1728;DHT22;861;48.808;9.006;2022-07-29T07:02:48;23.60;99.90
1728;DHT22;861;48.808;9.006;2022-07-29T07:05:14;23.80;99.90
1728;DHT22;861;48.808;9.006;2022-07-29T07:07:40;23.90;99.90
1728;DHT22;861;48.808;9.006;2022-07-29T07:10:07;23.90;99.90
1728;DHT22;861;48.808;9.006;2022-07-29T07:12:33;23.90;99.90
1728;DHT22;861;48.808;9.006;2022-07-29T07:15:00;23.90;99.90
1728;DHT22;861;48.808;9.006;2022-07-29T07:17:26;24.10;99.90
1728;DHT22;861;48.808;9.006;2022-07-29T07:19:53;24.10;99.90
1728;DHT22;861;48.808;9.006;2022-07-29T07:22:19;24.20;99.90
1728;DHT22;861;48.808;9.006;2022-07-29T07:24:45;24.20;99.90
1728;DHT22;861;48.808;9.006;2022-07-29T07:27:11;24.20;99.90
1728;DHT22;861;48.808;9.006;2022-07-29T07:29:37;24.20;99.90
1728;DHT22;861;48.808;9.006;2022-07-29T07:32:07;24.30;99.90
1728;DHT22;861;48.808;9.006;2022-07-29T07:34:34;24.40;99.90
1728;DHT22;861;48.808;9.006;2022-07-29T07:37:00;24.60;99.90
1728;DHT22;861;48.808;9.006;2022-07-29T07:39:27;24.70;99.90
1728;DHT22;861;48.808;9.006;2022-07-29T07:41:53;24.80;99.90
1728;DHT22;861;48.808;9.006;2022-07-29T07:44:19;25.00;99.90
1728;DHT22;861;48.808;9.006;2022-07-29T07:46:45;25.20;99.90
1728;DHT22;861;48.808;9.006;2022-07-29T07:49:11;25.40;99.90
1728;DHT22;861;48.808;9.006;2022-07-29T07:51:38;25.50;99.90
1728;DHT22;861;48.808;9.006;2022-07-29T07:54:04;25.50;99.90
1728;DHT22;861;48.808;9.006;2022-07-29T07:56:30;25.60;99.90
1728;DHT22;861;48.808;9.006;2022-07-29T07:58:57;25.50;99.90
1728;DHT22;861;48.808;9.006;2022-07-29T08:01:23;25.60;99.90
1728;DHT22;861;48.808;9.006;2022-07-29T08:03:50;25.70;99.90
1728;DHT22;861;48.808;9.006;2022-07-29T08:06:16;25.70;99.90
1728;DHT22;861;48.808;9.006;2022-07-29T08:08:42;25.60;99.90
1728;DHT22;861;48.808;9.006;2022-07-29T08:11:08;25.70;99.90
1728;DHT22;861;48.808;9.006;2022-07-29T08:13:36;25.70;99.90
1728;DHT22;861;48.808;9.006;2022-07-29T08:16:04;25.80;99.90
1728;DHT22;861;48.808;9.006;2022-07-29T08:18:40;25.90;99.90
1728;DHT22;861;48.808;9.006;2022-07-29T08:21:08;26.00;99.90
1728;DHT22;861;48.808;9.006;2022-07-29T08:23:35;26.20;99.90
1728;DHT22;861;48.808;9.006;2022-07-29T08:26:12;26.40;99.90
1728;DHT22;861;48.808;9.006;2022-07-29T08:28:45;26.30;99.00
1728;DHT22;861;48.808;9.006;2022-07-29T08:31:15;26.20;98.90
1728;DHT22;861;48.808;9.006;2022-07-29T08:33:44;26.10;97.90
1728;DHT22;861;48.808;9.006;2022-07-29T08:36:11;26.10;98.20
1728;DHT22;861;48.808;9.006;2022-07-29T08:38:38;26.10;97.70
1728;DHT22;861;48.808;9.006;2022-07-29T08:41:05;26.30;96.90
1728;DHT22;861;48.808;9.006;2022-07-29T08:43:31;26.40;98.10
1728;DHT22;861;48.808;9.006;2022-07-29T08:46:00;26.50;97.90
1728;DHT22;861;48.808;9.006;2022-07-29T08:48:27;26.60;96.90
1728;DHT22;861;48.808;9.006;2022-07-29T08:50:56;26.70;96.30
1728;DHT22;861;48.808;9.006;2022-07-29T08:53:28;26.90;97.80
1728;DHT22;861;48.808;9.006;2022-07-29T08:55:55;26.90;99.10
1728;DHT22;861;48.808;9.006;2022-07-29T08:58:25;26.90;99.00
1728;DHT22;861;48.808;9.006;2022-07-29T09:00:57;27.10;99.00
1728;DHT22;861;48.808;9.006;2022-07-29T09:03:32;27.10;97.80
1728;DHT22;861;48.808;9.006;2022-07-29T09:06:03;27.20;98.20
1728;DHT22;861;48.808;9.006;2022-07-29T09:08:33;27.30;96.40
1728;DHT22;861;48.808;9.006;2022-07-29T09:11:01;27.40;95.60
1728;DHT22;861;48.808;9.006;2022-07-29T09:13:29;27.70;94.80
1728;DHT22;861;48.808;9.006;2022-07-29T09:15:55;27.80;93.80
1728;DHT22;861;48.808;9.006;2022-07-29T09:18:44;27.90;93.40
1728;DHT22;861;48.808;9.006;2022-07-29T09:21:15;28.10;92.60
1728;DHT22;861;48.808;9.006;2022-07-29T09:24:18;28.00;93.50
1728;DHT22;861;48.808;9.006;2022-07-29T09:26:46;28.00;94.10
1728;DHT22;861;48.808;9.006;2022-07-29T09:29:21;28.00;94.80
1728;DHT22;861;48.808;9.006;2022-07-29T09:31:54;27.90;95.60
1728;DHT22;861;48.808;9.006;2022-07-29T09:34:28;28.00;97.30
1728;DHT22;861;48.808;9.006;2022-07-29T09:36:57;28.20;96.80
1728;DHT22;861;48.808;9.006;2022-07-29T09:39:37;27.90;96.80
1728;DHT22;861;48.808;9.006;2022-07-29T09:42:12;28.10;93.60
1728;DHT22;861;48.808;9.006;2022-07-29T09:44:42;28.20;92.10
1728;DHT22;861;48.808;9.006;2022-07-29T09:47:12;28.20;92.90
1728;DHT22;861;48.808;9.006;2022-07-29T09:49:57;28.10;92.10
1728;DHT22;861;48.808;9.006;2022-07-29T09:52:28;27.60;92.60
1728;DHT22;861;48.808;9.006;2022-07-29T09:55:09;27.40;93.70
1728;DHT22;861;48.808;9.006;2022-07-29T09:57:39;27.40;93.80
1728;DHT22;861;48.808;9.006;2022-07-29T10:00:12;27.40;92.90
1728;DHT22;861;48.808;9.006;2022-07-29T10:02:47;27.30;92.50
1728;DHT22;861;48.808;9.006;2022-07-29T10:05:26;27.10;91.50
1728;DHT22;861;48.808;9.006;2022-07-29T10:07:57;27.10;91.10
1728;DHT22;861;48.808;9.006;2022-07-29T10:10:33;27.00;90.00
1728;DHT22;861;48.808;9.006;2022-07-29T10:13:07;26.80;90.50
1728;DHT22;861;48.808;9.006;2022-07-29T10:15:41;26.70;91.30
1728;DHT22;861;48.808;9.006;2022-07-29T10:18:12;26.60;92.40
1728;DHT22;861;48.808;9.006;2022-07-29T10:20:42;26.70;89.80
1728;DHT22;861;48.808;9.006;2022-07-29T10:23:10;26.50;90.60
1728;DHT22;861;48.808;9.006;2022-07-29T10:25:36;26.40;90.20
1728;DHT22;861;48.808;9.006;2022-07-29T10:28:03;26.20;90.10
1728;DHT22;861;48.808;9.006;2022-07-29T10:30:31;26.10;90.90
1728;DHT22;861;48.808;9.006;2022-07-29T10:36:38;25.80;92.50
1728;DHT22;861;48.808;9.006;2022-07-29T10:39:50;25.90;94.00
1728;DHT22;861;48.808;9.006;2022-07-29T10:43:35;25.80;93.60
1728;DHT22;861;48.808;9.006;2022-07-29T10:46:11;25.80;96.90
1728;DHT22;861;48.808;9.006;2022-07-29T10:54:47;25.70;97.00
1728;DHT22;861;48.808;9.006;2022-07-29T10:57:24;25.60;99.20
1728;DHT22;861;48.808;9.006;2022-07-29T11:10:40;24.60;99.90
1728;DHT22;861;48.808;9.006;2022-07-29T11:13:07;24.50;99.90
1728;DHT22;861;48.808;9.006;2022-07-29T11:15:57;24.40;99.90
1728;DHT22;861;48.808;9.006;2022-07-29T11:18:24;24.40;99.90
1728;DHT22;861;48.808;9.006;2022-07-29T11:20:51;24.30;99.90
1728;DHT22;861;48.808;9.006;2022-07-29T11:23:26;24.30;99.90
1728;DHT22;861;48.808;9.006;2022-07-29T11:26:19;24.40;99.90
1728;DHT22;861;48.808;9.006;2022-07-29T11:47:57;26.10;99.90
1728;DHT22;861;48.808;9.006;2022-07-29T11:50:36;26.20;99.90
1728;DHT22;861;48.808;9.006;2022-07-29T11:53:12;26.20;99.90
1728;DHT22;861;48.808;9.006;2022-07-29T11:55:40;26.10;99.90
1728;DHT22;861;48.808;9.006;2022-07-29T11:58:08;26.30;99.90
1728;DHT22;861;48.808;9.006;2022-07-29T12:00:38;26.40;99.90
1728;DHT22;861;48.808;9.006;2022-07-29T12:03:11;26.40;99.90
1728;DHT22;861;48.808;9.006;2022-07-29T12:05:44;26.40;99.90
1728;DHT22;861;48.808;9.006;2022-07-29T12:08:18;26.40;99.90
1728;DHT22;861;48.808;9.006;2022-07-29T12:10:50;26.30;99.90
1728;DHT22;861;48.808;9.006;2022-07-29T12:13:20;26.30;99.90
1728;DHT22;861;48.808;9.006;2022-07-29T12:15:55;26.20;99.90
1728;DHT22;861;48.808;9.006;2022-07-29T12:18:24;26.10;99.90
1728;DHT22;861;48.808;9.006;2022-07-29T12:21:01;26.00;99.90
1728;DHT22;861;48.808;9.006;2022-07-29T12:23:33;25.80;99.90
1728;DHT22;861;48.808;9.006;2022-07-29T12:26:04;25.70;99.90
1728;DHT22;861;48.808;9.006;2022-07-29T12:28:37;25.40;99.90
1728;DHT22;861;48.808;9.006;2022-07-29T12:31:05;25.30;99.90
1728;DHT22;861;48.808;9.006;2022-07-29T12:33:38;25.20;99.90
1728;DHT22;861;48.808;9.006;2022-07-29T12:36:05;25.20;99.90
1728;DHT22;861;48.808;9.006;2022-07-29T12:38:35;25.20;99.90
1728;DHT22;861;48.808;9.006;2022-07-29T12:41:02;25.00;99.90
1728;DHT22;861;48.808;9.006;2022-07-29T12:43:30;25.00;99.90
1728;DHT22;861;48.808;9.006;2022-07-29T12:45:57;24.90;99.90
1728;DHT22;861;48.808;9.006;2022-07-29T12:48:43;25.00;99.90
1728;DHT22;861;48.808;9.006;2022-07-29T12:51:11;25.00;99.90
1728;DHT22;861;48.808;9.006;2022-07-29T12:53:39;25.00;99.90
1728;DHT22;861;48.808;9.006;2022-07-29T12:56:16;25.10;99.90
1728;DHT22;861;48.808;9.006;2022-07-29T12:58:42;25.10;99.90
1728;DHT22;861;48.808;9.006;2022-07-29T13:01:16;25.00;99.90
1728;DHT22;861;48.808;9.006;2022-07-29T13:03:55;25.10;99.90
1728;DHT22;861;48.808;9.006;2022-07-29T13:06:44;25.00;99.90
1728;DHT22;861;48.808;9.006;2022-07-29T13:09:13;24.90;99.90
1728;DHT22;861;48.808;9.006;2022-07-29T13:11:49;24.80;99.90
1728;DHT22;861;48.808;9.006;2022-07-29T13:14:37;24.90;99.90
1728;DHT22;861;48.808;9.006;2022-07-29T13:17:21;24.90;99.90
1728;DHT22;861;48.808;9.006;2022-07-29T13:20:07;24.80;99.90
1728;DHT22;861;48.808;9.006;2022-07-29T13:22:41;24.70;99.90
1728;DHT22;861;48.808;9.006;2022-07-29T13:25:11;24.70;99.90
1728;DHT22;861;48.808;9.006;2022-07-29T13:27:39;24.70;99.90
1728;DHT22;861;48.808;9.006;2022-07-29T13:30:08;24.90;99.90
1728;DHT22;861;48.808;9.006;2022-07-29T13:32:36;25.00;99.90
1728;DHT22;861;48.808;9.006;2022-07-29T13:35:08;25.10;99.90
1728;DHT22;861;48.808;9.006;2022-07-29T13:37:36;25.10;99.90
1728;DHT22;861;48.808;9.006;2022-07-29T13:40:09;25.30;99.90
1728;DHT22;861;48.808;9.006;2022-07-29T13:42:37;25.50;99.90
1728;DHT22;861;48.808;9.006;2022-07-29T13:45:05;25.90;99.90
1728;DHT22;861;48.808;9.006;2022-07-29T13:47:32;26.30;99.90
1728;DHT22;861;48.808;9.006;2022-07-29T13:50:04;26.70;99.90
1728;DHT22;861;48.808;9.006;2022-07-29T13:52:33;26.90;99.90
1728;DHT22;861;48.808;9.006;2022-07-29T13:55:01;26.90;99.90
1728;DHT22;861;48.808;9.006;2022-07-29T13:57:28;26.80;99.90
1728;DHT22;861;48.808;9.006;2022-07-29T13:59:56;26.70;99.90
1728;DHT22;861;48.808;9.006;2022-07-29T14:02:23;26.80;99.90
1728;DHT22;861;48.808;9.006;2022-07-29T14:04:49;26.70;99.90
1728;DHT22;861;48.808;9.006;2022-07-29T14:07:16;26.60;99.90
1728;DHT22;861;48.808;9.006;2022-07-29T14:09:42;26.60;99.90
1728;DHT22;861;48.808;9.006;2022-07-29T14:12:09;26.60;99.90
1728;DHT22;861;48.808;9.006;2022-07-29T14:14:35;26.60;99.90
1728;DHT22;861;48.808;9.006;2022-07-29T14:17:02;26.60;99.90
1728;DHT22;861;48.808;9.006;2022-07-29T14:19:32;26.60;99.90
1728;DHT22;861;48.808;9.006;2022-07-29T14:22:03;26.60;99.90
1728;DHT22;861;48.808;9.006;2022-07-29T14:24:31;26.60;99.90
1728;DHT22;861;48.808;9.006;2022-07-29T14:26:57;26.70;99.90
1728;DHT22;861;48.808;9.006;2022-07-29T14:29:24;26.80;99.90
1728;DHT22;861;48.808;9.006;2022-07-29T14:31:51;26.80;99.90
1728;DHT22;861;48.808;9.006;2022-07-29T14:34:17;26.80;99.90
1728;DHT22;861;48.808;9.006;2022-07-29T14:36:43;26.80;99.90
1728;DHT22;861;48.808;9.006;2022-07-29T14:39:10;26.60;99.90
1728;DHT22;861;48.808;9.006;2022-07-29T14:41:36;26.60;99.90
1728;DHT22;861;48.808;9.006;2022-07-29T14:44:04;26.50;99.90
1728;DHT22;861;48.808;9.006;2022-07-29T14:46:31;26.60;99.90
1728;DHT22;861;48.808;9.006;2022-07-29T14:48:57;26.70;99.90
1728;DHT22;861;48.808;9.006;2022-07-29T14:51:23;26.80;99.90
1728;DHT22;861;48.808;9.006;2022-07-29T14:53:49;26.90;99.90
1728;DHT22;861;48.808;9.006;2022-07-29T14:56:16;26.90;99.90
1728;DHT22;861;48.808;9.006;2022-07-29T14:58:42;26.90;99.90
1728;DHT22;861;48.808;9.006;2022-07-29T15:01:08;26.90;99.90
1728;DHT22;861;48.808;9.006;2022-07-29T15:03:34;27.00;99.90
1728;DHT22;861;48.808;9.006;2022-07-29T15:06:00;27.00;99.90
1728;DHT22;861;48.808;9.006;2022-07-29T15:08:27;27.00;99.90
1728;DHT22;861;48.808;9.006;2022-07-29T15:10:55;26.90;99.90
1728;DHT22;861;48.808;9.006;2022-07-29T15:13:23;27.00;99.90
1728;DHT22;861;48.808;9.006;2022-07-29T15:15:49;27.00;99.90
1728;DHT22;861;48.808;9.006;2022-07-29T15:18:15;26.90;99.90
1728;DHT22;861;48.808;9.006;2022-07-29T15:20:42;27.10;99.90
1728;DHT22;861;48.808;9.006;2022-07-29T15:23:10;27.10;99.90
1728;DHT22;861;48.808;9.006;2022-07-29T15:25:39;27.00;99.40
1728;DHT22;861;48.808;9.006;2022-07-29T15:28:05;27.00;98.50
1728;DHT22;861;48.808;9.006;2022-07-29T15:30:35;26.80;98.80
1728;DHT22;861;48.808;9.006;2022-07-29T15:33:08;26.80;97.80
1728;DHT22;861;48.808;9.006;2022-07-29T15:35:37;26.80;98.40
1728;DHT22;861;48.808;9.006;2022-07-29T15:38:03;26.70;97.10
1728;DHT22;861;48.808;9.006;2022-07-29T15:40:30;26.70;96.70
1728;DHT22;861;48.808;9.006;2022-07-29T15:42:56;26.80;96.50
1728;DHT22;861;48.808;9.006;2022-07-29T15:45:26;26.70;96.40
1728;DHT22;861;48.808;9.006;2022-07-29T15:47:53;26.60;97.10
1728;DHT22;861;48.808;9.006;2022-07-29T15:50:19;26.60;96.40
1728;DHT22;861;48.808;9.006;2022-07-29T15:52:48;26.60;97.70
1728;DHT22;861;48.808;9.006;2022-07-29T15:55:14;26.60;96.10
1728;DHT22;861;48.808;9.006;2022-07-29T15:57:41;26.60;98.10
1728;DHT22;861;48.808;9.006;2022-07-29T16:00:08;26.60;98.20
1728;DHT22;861;48.808;9.006;2022-07-29T16:02:35;26.50;98.50
1728;DHT22;861;48.808;9.006;2022-07-29T16:05:01;26.50;96.90
1728;DHT22;861;48.808;9.006;2022-07-29T16:07:27;26.40;96.80
1728;DHT22;861;48.808;9.006;2022-07-29T16:09:53;26.40;97.10
1728;DHT22;861;48.808;9.006;2022-07-29T16:12:20;26.40;97.80
1728;DHT22;861;48.808;9.006;2022-07-29T16:14:46;26.40;97.40
1728;DHT22;861;48.808;9.006;2022-07-29T16:17:14;26.40;96.80
1728;DHT22;861;48.808;9.006;2022-07-29T16:19:40;26.40;97.20
1728;DHT22;861;48.808;9.006;2022-07-29T16:22:11;26.40;99.30
1728;DHT22;861;48.808;9.006;2022-07-29T16:24:38;26.40;97.30
1728;DHT22;861;48.808;9.006;2022-07-29T16:27:05;26.60;97.70
1728;DHT22;861;48.808;9.006;2022-07-29T16:29:32;26.80;96.20
1728;DHT22;861;48.808;9.006;2022-07-29T16:31:58;27.00;96.30
1728;DHT22;861;48.808;9.006;2022-07-29T16:34:24;27.10;97.10
1728;DHT22;861;48.808;9.006;2022-07-29T16:36:51;27.10;96.40
1728;DHT22;861;48.808;9.006;2022-07-29T16:39:17;27.10;94.20
1728;DHT22;861;48.808;9.006;2022-07-29T16:41:43;27.20;95.60
1728;DHT22;861;48.808;9.006;2022-07-29T16:44:09;27.10;95.90
1728;DHT22;861;48.808;9.006;2022-07-29T16:46:35;27.10;97.30
1728;DHT22;861;48.808;9.006;2022-07-29T16:49:03;27.10;97.20
1728;DHT22;861;48.808;9.006;2022-07-29T16:51:29;27.20;97.20
1728;DHT22;861;48.808;9.006;2022-07-29T16:53:55;27.10;97.40
1728;DHT22;861;48.808;9.006;2022-07-29T16:56:21;27.10;97.90
1728;DHT22;861;48.808;9.006;2022-07-29T17:03:07;27.00;97.70
1728;DHT22;861;48.808;9.006;2022-07-29T17:05:33;27.00;97.10
1728;DHT22;861;48.808;9.006;2022-07-29T17:07:59;27.20;97.30
1728;DHT22;861;48.808;9.006;2022-07-29T17:10:26;27.50;97.20
1728;DHT22;861;48.808;9.006;2022-07-29T17:12:54;27.40;98.10
1728;DHT22;861;48.808;9.006;2022-07-29T17:15:21;27.40;98.20
1728;DHT22;861;48.808;9.006;2022-07-29T17:17:47;27.50;99.00
1728;DHT22;861;48.808;9.006;2022-07-29T17:20:14;27.70;98.70
1728;DHT22;861;48.808;9.006;2022-07-29T17:22:41;27.70;98.30
1728;DHT22;861;48.808;9.006;2022-07-29T17:25:08;27.80;98.50
1728;DHT22;861;48.808;9.006;2022-07-29T17:27:35;27.90;98.30
1728;DHT22;861;48.808;9.006;2022-07-29T17:30:03;27.90;97.50